Terminal Aerodrome Forecast
Issued by NWS

Home | Current Version | Previous Version | Text Only | Print | Product List | Glossary On
Versions: 1 2 3 4 5 6 7 8 9 10 11 12 13 14 15 16 17 18 19 20 21 22 23 24 25 26 27 28 29
301
FTUS42 KCAE 222056 AAA
TAFOGB
TAF AMD
KOGB 222056Z 2221/2318 12007KT P6SM SCT035 BKN080
     FM230000 VRB03KT P6SM SCT040 OVC100
     FM230900 VRB03KT 3SM BR SCT010 BKN035
     FM231400 08007KT P6SM SCT020 BKN035=

USA.gov is the U.S. government's official web portal to all federal, state and local government web resources and services.